createdAt,value
2018-02-07T00:23:17.133Z,64.87
2018-02-07T00:25:47.423Z,63.72
2018-02-07T00:28:17.357Z,64.53
2018-02-07T00:30:49.518Z,68.12
2018-02-07T00:33:19.588Z,64.53
2018-02-07T00:35:50.796Z,56.45
2018-02-07T00:38:20.715Z,59.22
2018-02-07T00:40:50.792Z,56.20
2018-02-07T00:43:20.866Z,56.03
2018-02-07T00:45:50.787Z,61.28
2018-02-07T00:48:21.857Z,60.78
2018-02-07T00:50:51.629Z,56.30
2018-02-07T00:53:21.781Z,56.17
2018-02-07T00:55:52.471Z,55.70
2018-02-07T00:58:22.739Z,61.22
2018-02-07T01:00:54.074Z,55.53
2018-02-07T01:03:23.864Z,50.10
2018-02-07T01:05:53.624Z,47.92
2018-02-07T01:08:24.372Z,52.38
2018-02-07T01:10:54.405Z,55.55
2018-02-07T01:13:25.303Z,55.63
2018-02-07T01:15:55.143Z,54.55
2018-02-07T01:18:25.837Z,51.55
2018-02-07T01:20:56.548Z,53.60
2018-02-07T01:23:26.459Z,54.03
2018-02-07T01:25:56.337Z,62.00
2018-02-07T01:28:26.585Z,56.33
2018-02-07T01:30:56.424Z,51.97
2018-02-07T01:33:27.470Z,53.53
2018-02-07T01:35:59.354Z,63.92
2018-02-07T01:38:30.077Z,60.85
2018-02-07T01:40:59.882Z,57.38
2018-02-07T01:43:35.925Z,60.63
2018-02-07T01:46:05.687Z,60.78
2018-02-07T01:48:35.810Z,66.28
2018-02-07T01:51:05.743Z,61.20
2018-02-07T01:53:37.457Z,60.12
2018-02-07T01:56:07.372Z,55.17
2018-02-07T01:58:37.385Z,60.70
2018-02-07T02:01:10.957Z,60.67
2018-02-07T02:03:40.866Z,69.72
2018-02-07T02:06:10.748Z,73.80
2018-02-07T02:08:40.760Z,71.18
2018-02-07T02:11:10.628Z,68.00
2018-02-07T02:13:41.246Z,61.20
2018-02-07T02:16:12.024Z,66.00
2018-02-07T02:18:42.107Z,58.85
2018-02-07T02:21:13.060Z,61.10
2018-02-07T02:23:43.718Z,72.15
2018-02-07T02:26:13.723Z,73.80
2018-02-07T02:28:43.871Z,109.12
2018-02-07T02:31:13.835Z,68.35
2018-02-07T02:33:44.393Z,76.65
2018-02-07T02:36:49.160Z,79.12
2018-02-07T02:39:19.157Z,84.35
2018-02-07T02:41:49.622Z,69.97
2018-02-07T02:44:19.495Z,67.90
2018-02-07T02:46:49.564Z,82.28
2018-02-07T02:49:19.766Z,89.05
2018-02-07T02:51:51.519Z,81.50
2018-02-07T02:54:22.193Z,66.68
2018-02-07T02:56:53.351Z,73.45
2018-02-07T02:59:23.818Z,82.57
2018-02-07T03:01:53.930Z,80.85
2018-02-07T03:04:24.115Z,81.35
2018-02-07T03:06:55.390Z,87.93
2018-02-07T03:09:26.688Z,80.07
2018-02-07T03:11:59.132Z,87.47
2018-02-07T03:14:29.754Z,81.37
2018-02-07T03:16:59.854Z,84.40
2018-02-07T03:19:30.824Z,73.53
2018-02-07T03:22:00.707Z,69.40
2018-02-07T03:24:31.656Z,70.53
2018-02-07T03:27:01.560Z,68.43
2018-02-07T03:29:32.221Z,62.53
2018-02-07T03:32:03.136Z,70.85
2018-02-07T03:34:33.394Z,66.25
2018-02-07T03:37:03.772Z,65.57
2018-02-07T03:42:15.139Z,63.67
2018-02-07T03:44:46.135Z,59.80
2018-02-07T03:47:16.102Z,63.45
2018-02-07T03:49:46.477Z,60.88
2018-02-07T03:52:16.801Z,57.75
2018-02-07T03:54:46.977Z,63.03
2018-02-07T03:57:17.733Z,58.10
2018-02-07T03:59:47.849Z,63.63
2018-02-07T04:02:17.900Z,59.10
2018-02-07T04:04:47.801Z,64.30
2018-02-07T04:07:18.118Z,73.90
2018-02-07T04:09:48.133Z,68.75
2018-02-07T04:12:18.049Z,64.12
2018-02-07T04:14:47.888Z,66.43
2018-02-07T04:17:18.236Z,61.90
2018-02-07T04:19:48.254Z,60.05
2018-02-07T04:22:18.100Z,62.75
2018-02-07T04:24:48.747Z,57.55
2018-02-07T04:27:20.434Z,61.70
2018-02-07T04:29:50.484Z,54.67
2018-02-07T04:32:21.647Z,51.40
2018-02-07T04:34:52.458Z,56.13
2018-02-07T04:37:23.926Z,56.40
2018-02-07T04:39:54.645Z,58.13
2018-02-07T04:42:24.684Z,58.95
2018-02-07T04:44:55.690Z,56.40
2018-02-07T04:47:25.626Z,54.35
2018-02-07T04:49:56.278Z,66.62
2018-02-07T04:52:26.418Z,65.53
2018-02-07T04:54:56.209Z,55.25
2018-02-07T04:57:28.907Z,55.03
2018-02-07T04:59:58.876Z,56.55
2018-02-07T05:02:29.387Z,52.25
2018-02-07T05:05:00.412Z,48.20
2018-02-07T05:07:30.589Z,48.50
2018-02-07T05:10:00.601Z,49.33
2018-02-07T05:12:31.876Z,48.70
2018-02-07T05:15:01.700Z,51.55
2018-02-07T05:17:31.641Z,45.72
2018-02-07T05:20:03.229Z,45.38
2018-02-07T05:22:33.385Z,53.10
2018-02-07T05:25:04.868Z,50.33
2018-02-07T05:27:35.201Z,48.55
2018-02-07T05:30:05.771Z,54.92
2018-02-07T05:32:35.952Z,47.78
2018-02-07T05:35:06.987Z,51.25
2018-02-07T05:37:37.064Z,48.05
2018-02-07T05:40:07.891Z,52.45
2018-02-07T05:42:39.077Z,46.30
2018-02-07T05:45:11.580Z,48.72
2018-02-07T05:47:41.400Z,49.53
2018-02-07T05:50:12.456Z,51.83
2018-02-07T05:52:43.063Z,53.55
2018-02-07T05:55:13.316Z,55.20
2018-02-07T05:57:45.757Z,52.47
2018-02-07T06:00:18.936Z,51.03
2018-02-07T06:02:48.956Z,57.55
2018-02-07T06:05:18.789Z,59.22
2018-02-07T06:07:50.070Z,61.15
2018-02-07T06:10:25.576Z,59.30
2018-02-07T06:12:55.621Z,67.60
2018-02-07T06:15:29.662Z,74.00
2018-02-07T06:18:00.265Z,69.78
2018-02-07T06:20:30.437Z,67.95
2018-02-07T06:23:01.182Z,72.82
2018-02-07T06:25:31.781Z,74.68
2018-02-07T06:28:03.131Z,75.78
2018-02-07T06:30:34.721Z,69.75
2018-02-07T06:33:05.594Z,65.65
2018-02-07T06:35:35.608Z,73.53
2018-02-07T06:38:07.148Z,72.12
2018-02-07T06:40:37.990Z,67.70
2018-02-07T06:43:09.990Z,88.90
2018-02-07T06:45:43.826Z,81.93
2018-02-07T06:48:14.096Z,77.05
2018-02-07T06:50:44.804Z,70.03
2018-02-07T06:53:18.320Z,80.80
2018-02-07T06:55:54.482Z,79.47
2018-02-07T06:58:29.374Z,82.57
2018-02-07T07:01:01.593Z,80.15
2018-02-07T07:03:35.657Z,91.15
2018-02-07T07:06:07.483Z,98.35
2018-02-07T07:08:37.872Z,81.72
2018-02-07T07:11:08.858Z,85.57
2018-02-07T07:13:43.540Z,74.22
2018-02-07T07:16:16.461Z,91.22
2018-02-07T07:18:46.687Z,85.95
2018-02-07T07:21:19.143Z,84.40
2018-02-07T07:23:51.330Z,79.12
2018-02-07T07:26:23.838Z,70.07
2018-02-07T07:28:58.033Z,82.05
2018-02-07T07:31:30.606Z,100.70
2018-02-07T07:34:02.742Z,91.25
2018-02-07T07:36:34.731Z,89.68
2018-02-07T07:39:06.776Z,73.93
2018-02-07T07:41:37.279Z,84.05
2018-02-07T07:44:12.812Z,86.53
2018-02-07T07:46:43.282Z,90.47
2018-02-07T07:49:54.442Z,92.95
2018-02-07T07:52:37.292Z,83.12
2018-02-07T07:55:09.441Z,86.25
2018-02-07T07:57:44.405Z,83.20
2018-02-07T08:00:19.059Z,85.65
2018-02-07T08:02:49.685Z,84.82
2018-02-07T08:05:21.430Z,78.60
2018-02-07T08:07:56.680Z,84.13
2018-02-07T08:10:30.547Z,82.18
2018-02-07T08:15:50.919Z,77.70
2018-02-07T08:18:29.574Z,83.55
2018-02-07T08:21:01.810Z,86.75
2018-02-07T08:23:55.911Z,93.53
2018-02-07T08:26:27.261Z,84.95
2018-02-07T08:28:59.478Z,86.63
2018-02-07T08:32:11.917Z,82.28
2018-02-07T08:38:46.087Z,84.00
2018-02-07T08:41:43.698Z,83.30
2018-02-07T08:47:11.311Z,72.65
2018-02-07T08:49:42.456Z,81.97
2018-02-07T08:52:13.539Z,78.80
2018-02-07T08:54:47.971Z,79.95
2018-02-07T08:57:32.594Z,82.80
2018-02-07T09:03:02.786Z,93.85
2018-02-07T09:05:33.371Z,88.05
2018-02-07T09:08:09.114Z,82.05
2018-02-07T09:10:52.890Z,86.65
2018-02-07T09:13:28.916Z,88.78
2018-02-07T09:15:59.604Z,86.55
2018-02-07T09:18:31.419Z,83.95
2018-02-07T09:21:04.861Z,85.80
2018-02-07T09:23:36.161Z,94.62
2018-02-07T09:26:08.148Z,86.12
2018-02-07T09:28:40.644Z,92.62
2018-02-07T09:31:12.731Z,82.68
2018-02-07T09:33:46.589Z,80.18
2018-02-07T09:36:20.006Z,81.43
2018-02-07T09:41:53.066Z,84.13
2018-02-07T09:44:26.369Z,82.37
2018-02-07T09:53:09.989Z,86.97
2018-02-07T09:55:45.040Z,93.60
2018-02-07T09:58:17.142Z,89.45
2018-02-07T10:00:51.376Z,89.43
2018-02-07T10:03:23.532Z,85.93
2018-02-07T10:08:53.636Z,111.10
2018-02-07T10:11:27.572Z,98.75
2018-02-07T10:14:02.738Z,93.53
2018-02-07T10:19:33.926Z,81.43
2018-02-07T10:22:23.765Z,82.18
2018-02-07T10:24:59.144Z,97.40
2018-02-07T10:27:31.079Z,87.40
2018-02-07T10:30:03.334Z,82.47
2018-02-07T10:32:41.849Z,86.20
2018-02-07T10:35:16.241Z,80.55
2018-02-07T10:38:02.752Z,97.82
2018-02-07T10:40:59.924Z,78.18
2018-02-07T10:43:36.202Z,84.53
2018-02-07T10:46:23.589Z,85.55
2018-02-07T10:49:10.460Z,94.75
2018-02-07T10:51:45.369Z,86.28
2018-02-07T10:54:28.489Z,91.05
2018-02-07T10:57:05.342Z,91.95
2018-02-07T11:02:26.192Z,96.43
2018-02-07T11:05:03.232Z,79.75
2018-02-07T11:10:54.402Z,86.68
2018-02-07T11:13:33.907Z,91.35
2018-02-07T11:16:09.025Z,83.07
2018-02-07T11:18:42.844Z,88.82
2018-02-07T11:21:30.239Z,101.50
2018-02-07T11:24:32.353Z,93.53
2018-02-07T11:38:56.637Z,82.37
2018-02-07T11:41:49.566Z,82.20
2018-02-07T11:44:25.006Z,84.03
2018-02-07T11:46:59.297Z,87.88
2018-02-07T11:49:31.710Z,79.78
2018-02-07T11:52:06.658Z,79.15
2018-02-07T11:54:37.611Z,83.82
2018-02-07T11:57:09.792Z,80.20
2018-02-07T11:59:41.908Z,89.65
2018-02-07T12:02:27.457Z,81.55
2018-02-07T12:08:35.640Z,76.55
2018-02-07T12:11:22.000Z,73.50
2018-02-07T12:13:59.449Z,77.65
2018-02-07T12:16:30.251Z,83.10
2018-02-07T12:19:01.919Z,78.28
2018-02-07T12:21:34.656Z,80.20
2018-02-07T12:24:13.388Z,88.15
2018-02-07T12:26:46.504Z,83.07
2018-02-07T12:29:20.348Z,86.25
2018-02-07T12:37:54.393Z,90.45
2018-02-07T12:40:27.809Z,84.00
2018-02-07T12:42:59.897Z,90.43
2018-02-07T12:45:34.066Z,83.78
2018-02-07T12:48:06.330Z,89.53
2018-02-07T12:50:50.528Z,86.55
2018-02-07T12:53:34.696Z,93.53
2018-02-07T12:56:05.886Z,91.28
2018-02-07T12:58:37.496Z,87.20
2018-02-07T13:01:12.362Z,87.90
2018-02-07T13:03:52.117Z,95.55
2018-02-07T13:06:23.468Z,97.22
2018-02-07T13:08:56.131Z,94.60
2018-02-07T13:11:29.016Z,96.72
2018-02-07T13:16:45.180Z,94.05
2018-02-07T13:19:17.247Z,102.90
2018-02-07T13:24:52.956Z,101.70
2018-02-07T13:27:28.335Z,104.45
2018-02-07T13:30:09.604Z,105.30
2018-02-07T13:32:44.866Z,98.15
2018-02-07T13:35:20.744Z,100.18
2018-02-07T13:47:57.033Z,124.82
2018-02-07T13:50:29.903Z,113.90
2018-02-07T13:53:00.927Z,120.07
2018-02-07T13:55:32.818Z,107.25
2018-02-07T13:58:07.707Z,113.78
2018-02-07T14:00:42.952Z,116.03
2018-02-07T14:03:29.273Z,116.72
2018-02-07T14:08:59.312Z,116.25
2018-02-07T14:11:30.584Z,126.72
2018-02-07T14:28:51.186Z,147.55
2018-02-07T14:40:59.786Z,109.43
2018-02-07T14:43:39.605Z,120.07
2018-02-07T14:59:02.359Z,121.78
2018-02-07T15:01:48.371Z,119.03
2018-02-07T15:05:00.122Z,115.72
2018-02-07T15:07:31.823Z,109.53
2018-02-07T15:10:09.527Z,122.20
2018-02-07T15:16:03.915Z,118.32
2018-02-07T15:18:34.658Z,113.85
2018-02-07T15:21:07.246Z,103.90
2018-02-07T15:23:38.924Z,103.57
2018-02-07T15:26:11.870Z,116.78
2018-02-07T15:28:43.025Z,99.95
2018-02-07T15:31:14.479Z,90.40
2018-02-07T15:33:46.821Z,94.47
2018-02-07T15:36:35.271Z,89.25
2018-02-07T15:39:20.066Z,89.20
2018-02-07T15:42:10.071Z,89.35
2018-02-07T15:51:11.756Z,83.70
2018-02-07T15:54:06.573Z,86.53
2018-02-07T15:56:42.627Z,81.80
2018-02-07T16:02:49.942Z,76.90
2018-02-07T16:05:24.436Z,74.45
2018-02-07T16:08:11.094Z,70.68
2018-02-07T16:17:06.898Z,77.07
2018-02-07T16:23:09.626Z,74.20
2018-02-07T16:25:42.016Z,75.65
2018-02-07T16:28:14.780Z,67.00
2018-02-07T16:30:46.336Z,68.75
2018-02-07T16:33:44.189Z,71.60
2018-02-07T16:36:15.365Z,71.35
2018-02-07T16:38:47.679Z,66.85
2018-02-07T16:41:18.963Z,71.87
2018-02-07T16:43:50.616Z,73.00
2018-02-07T16:46:47.545Z,75.80
2018-02-07T16:49:18.593Z,67.82
2018-02-07T16:51:48.585Z,71.28
2018-02-07T16:54:20.073Z,66.12
2018-02-07T16:57:03.120Z,68.32
2018-02-07T16:59:34.062Z,62.75
2018-02-07T17:02:32.833Z,64.25
2018-02-07T17:05:42.059Z,63.72
2018-02-07T17:14:26.157Z,65.28
2018-02-07T17:19:49.362Z,59.78
2018-02-07T17:25:21.460Z,58.28
2018-02-07T17:27:55.536Z,64.65
2018-02-07T17:30:30.378Z,67.30
2018-02-07T17:40:03.733Z,64.18
2018-02-07T17:42:50.629Z,68.10
2018-02-07T17:45:30.443Z,67.97
2018-02-07T17:48:01.710Z,67.72
2018-02-07T17:50:38.648Z,70.37
2018-02-07T17:53:08.971Z,65.35
2018-02-07T17:58:49.433Z,77.40
2018-02-07T18:04:41.082Z,66.87
2018-02-07T18:07:23.142Z,70.05
2018-02-07T18:09:54.826Z,65.78
2018-02-07T18:12:25.272Z,68.00
2018-02-07T18:14:57.006Z,76.60
2018-02-07T18:17:28.310Z,86.97
2018-02-07T18:19:58.268Z,94.05
2018-02-07T18:22:41.778Z,74.87
2018-02-07T18:25:27.156Z,66.68
2018-02-07T18:27:57.801Z,66.22
2018-02-07T18:30:28.716Z,101.70
2018-02-07T18:33:10.649Z,72.32
2018-02-07T18:35:53.671Z,71.05
2018-02-07T18:38:26.324Z,75.87
2018-02-07T18:41:02.684Z,66.97
2018-02-07T18:43:35.655Z,62.85
2018-02-07T18:46:05.735Z,68.45
2018-02-07T18:48:39.505Z,68.70
2018-02-07T18:51:35.917Z,59.95
2018-02-07T18:54:08.828Z,70.82
2018-02-07T18:56:39.611Z,70.37
2018-02-07T18:59:09.695Z,68.70
2018-02-07T19:01:52.054Z,157.07
2018-02-07T19:04:23.084Z,94.97
2018-02-07T19:07:06.769Z,69.70
2018-02-07T19:09:37.539Z,64.40
2018-02-07T19:12:07.321Z,66.45
2018-02-07T19:14:42.184Z,65.47
2018-02-07T19:17:13.924Z,64.70
2018-02-07T19:19:43.769Z,67.70
2018-02-07T19:22:27.875Z,65.65
2018-02-07T19:24:58.975Z,62.00
2018-02-07T19:27:28.928Z,59.03
2018-02-07T19:29:59.780Z,65.35
2018-02-07T19:35:15.973Z,63.85
2018-02-07T19:37:46.688Z,62.25
2018-02-07T19:40:18.091Z,56.20
2018-02-07T19:45:35.674Z,61.00
2018-02-07T19:48:06.583Z,60.88
2018-02-07T19:50:38.429Z,65.60
2018-02-07T19:53:08.262Z,57.00
2018-02-07T19:55:38.878Z,70.47
2018-02-07T19:58:09.833Z,64.85
2018-02-07T20:00:40.961Z,69.95
2018-02-07T20:03:24.554Z,65.35
2018-02-07T20:05:56.052Z,63.78
2018-02-07T20:08:27.546Z,65.93
2018-02-07T20:10:57.871Z,63.97
2018-02-07T20:13:32.779Z,69.03
2018-02-07T20:16:05.776Z,72.12
2018-02-07T20:19:01.310Z,69.57
2018-02-07T20:21:32.943Z,69.50
2018-02-07T20:24:03.658Z,65.65
2018-02-07T20:26:35.328Z,66.25
2018-02-07T20:29:35.077Z,70.60
2018-02-07T20:35:17.601Z,65.78
2018-02-07T20:37:55.333Z,65.15
2018-02-07T20:40:26.069Z,65.93
2018-02-07T20:43:09.773Z,60.60
2018-02-07T20:45:41.644Z,62.03
2018-02-07T20:51:24.404Z,60.78
2018-02-07T21:16:30.302Z,55.25
2018-02-07T21:19:01.561Z,55.78
2018-02-07T21:21:31.628Z,55.25
2018-02-07T21:24:03.676Z,51.20
2018-02-07T21:26:33.821Z,60.97
2018-02-07T21:29:04.632Z,54.17
2018-02-07T21:31:36.231Z,52.42
2018-02-07T21:34:06.855Z,48.05
2018-02-07T21:36:38.835Z,50.35
2018-02-07T21:42:05.217Z,56.72
2018-02-07T21:44:35.917Z,51.35
2018-02-07T21:47:05.991Z,51.60
2018-02-07T21:49:36.012Z,49.92
2018-02-07T21:52:18.596Z,58.13
2018-02-07T21:54:50.682Z,54.15
2018-02-07T21:57:22.131Z,55.97
2018-02-07T21:59:52.157Z,49.00
2018-02-07T22:02:23.756Z,50.38
2018-02-07T22:04:55.789Z,52.60
2018-02-07T22:07:26.905Z,52.22
2018-02-07T22:09:58.818Z,45.28
2018-02-07T22:12:28.786Z,46.40
2018-02-07T22:14:59.120Z,46.67
2018-02-07T22:17:29.463Z,47.10
2018-02-07T22:20:00.374Z,49.65
2018-02-07T22:22:32.279Z,51.45
2018-02-07T22:25:02.256Z,49.92
2018-02-07T22:27:34.088Z,48.10
2018-02-07T22:30:03.962Z,46.13
2018-02-07T22:32:34.749Z,45.70
2018-02-07T22:37:47.291Z,41.05
2018-02-07T22:40:19.750Z,44.45
2018-02-07T22:42:49.787Z,44.25
2018-02-07T22:45:20.168Z,49.10
2018-02-07T22:47:50.031Z,47.70
2018-02-07T22:50:19.931Z,42.38
2018-02-07T22:52:49.962Z,45.63
2018-02-07T22:55:21.794Z,41.92
2018-02-07T22:57:51.701Z,42.67
2018-02-07T23:00:21.732Z,43.13
2018-02-07T23:02:51.581Z,41.83
2018-02-07T23:05:22.391Z,38.55
2018-02-07T23:07:52.436Z,40.88
2018-02-07T23:10:23.522Z,37.25
2018-02-07T23:12:53.317Z,43.10
2018-02-07T23:15:23.198Z,39.17
2018-02-07T23:17:56.114Z,40.47
2018-02-07T23:20:26.132Z,38.58
2018-02-07T23:22:56.661Z,39.60
2018-02-07T23:25:26.872Z,40.00
2018-02-07T23:27:57.454Z,35.17
2018-02-07T23:30:28.369Z,36.03
2018-02-07T23:32:58.466Z,38.08
2018-02-07T23:35:32.946Z,42.17
2018-02-07T23:38:03.379Z,39.55
2018-02-07T23:40:33.812Z,39.70
2018-02-07T23:43:03.733Z,39.05
2018-02-07T23:45:33.915Z,39.83
2018-02-07T23:48:04.120Z,34.88
2018-02-07T23:50:34.057Z,35.58
2018-02-07T23:53:04.381Z,36.38
2018-02-07T23:55:34.396Z,40.50
2018-02-07T23:58:04.336Z,34.78
